createdAt,value
2022-09-22T00:00:39.300Z,5.27
2022-09-22T00:03:18.539Z,5.27
2022-09-22T00:06:08.889Z,5.25
2022-09-22T00:08:43.201Z,5.18
2022-09-22T00:11:22.882Z,5.14
2022-09-22T00:14:03.481Z,5.08
2022-09-22T00:16:37.404Z,4.99
2022-09-22T00:19:32.225Z,5.02
2022-09-22T00:22:05.946Z,5.03
2022-09-22T00:24:38.437Z,5.00
2022-09-22T00:27:11.408Z,5.09
2022-09-22T00:29:48.915Z,5.19
2022-09-22T00:32:30.265Z,5.14
2022-09-22T00:35:03.222Z,5.10
2022-09-22T00:37:41.355Z,5.06
2022-09-22T00:40:17.977Z,5.05
2022-09-22T00:43:14.667Z,4.98
2022-09-22T00:45:51.472Z,4.90
2022-09-22T00:48:26.215Z,4.87
2022-09-22T00:51:06.255Z,4.84
2022-09-22T00:53:45.425Z,4.82
2022-09-22T00:56:24.217Z,4.79
2022-09-22T00:59:21.734Z,4.73
2022-09-22T01:02:08.829Z,4.68
2022-09-22T01:04:44.719Z,4.68
2022-09-22T01:07:18.398Z,4.63
2022-09-22T01:09:55.119Z,4.54
2022-09-22T01:12:33.903Z,4.55
2022-09-22T01:15:30.836Z,4.49
2022-09-22T01:18:23.803Z,4.45
2022-09-22T01:21:22.190Z,4.40
2022-09-22T01:24:26.218Z,4.33
2022-09-22T01:27:02.437Z,4.27
2022-09-22T01:30:28.155Z,4.23
2022-09-22T01:33:06.634Z,4.25
2022-09-22T01:35:56.959Z,4.22
2022-09-22T01:38:58.758Z,4.16
2022-09-22T01:42:03.332Z,4.18
2022-09-22T01:44:42.688Z,4.14
2022-09-22T01:47:34.311Z,4.12
2022-09-22T01:50:21.042Z,4.09
2022-09-22T01:53:01.547Z,4.09
2022-09-22T01:55:41.224Z,4.09
2022-09-22T01:58:24.568Z,4.06
2022-09-22T02:01:13.627Z,4.16
2022-09-22T02:04:00.338Z,4.14
2022-09-22T02:06:51.179Z,4.05
2022-09-22T02:09:26.410Z,4.02
2022-09-22T02:12:01.731Z,4.01
2022-09-22T02:14:34.609Z,3.94
2022-09-22T02:17:14.532Z,3.88
2022-09-22T02:19:50.539Z,3.89
2022-09-22T02:22:28.773Z,3.84
2022-09-22T02:25:04.267Z,3.78
2022-09-22T02:27:41.019Z,3.78
2022-09-22T02:30:23.714Z,3.67
2022-09-22T02:33:02.250Z,3.65
2022-09-22T02:35:40.111Z,3.66
2022-09-22T02:38:25.715Z,3.61
2022-09-22T02:41:12.565Z,3.59
2022-09-22T02:43:51.946Z,3.57
2022-09-22T02:46:27.474Z,3.52
2022-09-22T02:49:06.272Z,3.47
2022-09-22T02:51:39.636Z,3.46
2022-09-22T02:54:21.759Z,3.41
2022-09-22T02:57:07.495Z,3.46
2022-09-22T02:59:40.033Z,3.44
2022-09-22T03:02:18.377Z,3.43
2022-09-22T03:04:59.115Z,3.44
2022-09-22T03:07:36.609Z,3.40
2022-09-22T03:10:12.196Z,3.42
2022-09-22T03:13:09.156Z,3.40
2022-09-22T03:15:53.858Z,3.41
2022-09-22T03:18:31.436Z,3.41
2022-09-22T03:21:07.018Z,3.44
2022-09-22T03:23:48.414Z,3.46
2022-09-22T03:26:25.503Z,3.45
2022-09-22T03:29:00.581Z,3.44
2022-09-22T03:31:40.471Z,3.48
2022-09-22T03:34:12.832Z,3.51
2022-09-22T03:36:52.624Z,3.53
2022-09-22T03:39:30.460Z,3.58
2022-09-22T03:42:08.395Z,3.54
2022-09-22T03:44:52.507Z,3.53
2022-09-22T03:47:30.698Z,3.50
2022-09-22T03:50:06.461Z,3.45
2022-09-22T03:52:40.267Z,3.44
2022-09-22T03:55:24.975Z,3.36
2022-09-22T03:58:08.069Z,3.36
2022-09-22T04:00:44.239Z,3.36
2022-09-22T04:03:16.773Z,3.34
2022-09-22T04:05:55.996Z,3.31
2022-09-22T04:08:35.298Z,3.26
2022-09-22T04:14:01.543Z,3.22
2022-09-22T04:16:42.766Z,3.22
2022-09-22T04:19:14.158Z,3.19
2022-09-22T04:21:56.897Z,3.16
2022-09-22T04:24:33.382Z,3.09
2022-09-22T04:27:20.911Z,3.06
2022-09-22T04:30:03.242Z,3.03
2022-09-22T04:32:36.896Z,3.00
2022-09-22T04:35:18.814Z,2.95
2022-09-22T04:37:56.728Z,3.01
2022-09-22T04:40:42.619Z,3.03
2022-09-22T04:43:15.708Z,2.99
2022-09-22T04:45:49.037Z,2.99
2022-09-22T04:48:30.281Z,3.12
2022-09-22T04:51:08.074Z,3.08
2022-09-22T04:53:43.342Z,3.06
2022-09-22T04:56:18.575Z,3.05
2022-09-22T04:58:56.732Z,3.05
2022-09-22T05:01:27.474Z,3.11
2022-09-22T05:04:08.111Z,3.16
2022-09-22T05:06:39.666Z,3.17
2022-09-22T05:09:23.076Z,3.18
2022-09-22T05:12:02.681Z,3.22
2022-09-22T05:14:40.104Z,3.21
2022-09-22T05:17:16.384Z,3.23
2022-09-22T05:19:50.076Z,3.26
2022-09-22T05:22:23.074Z,3.32
2022-09-22T05:25:04.374Z,3.30
2022-09-22T05:27:38.163Z,3.31
2022-09-22T05:30:17.146Z,3.35
2022-09-22T05:32:52.806Z,3.38
2022-09-22T05:35:36.877Z,3.43
2022-09-22T05:38:09.449Z,3.69
2022-09-22T05:40:39.649Z,3.97
2022-09-22T05:43:18.298Z,4.26
2022-09-22T05:45:50.892Z,4.56
2022-09-22T05:48:32.745Z,4.79
2022-09-22T05:51:16.027Z,5.13
2022-09-22T05:53:57.638Z,5.42
2022-09-22T05:56:31.375Z,5.73
2022-09-22T05:59:06.726Z,6.00
2022-09-22T06:01:39.557Z,6.27
2022-09-22T06:04:18.589Z,6.46
2022-09-22T06:06:56.449Z,6.81
2022-09-22T06:09:33.979Z,7.09
2022-09-22T06:12:13.055Z,7.41
2022-09-22T06:14:52.237Z,7.64
2022-09-22T06:17:27.879Z,7.93
2022-09-22T06:19:58.721Z,8.27
2022-09-22T06:22:31.376Z,8.57
2022-09-22T06:25:05.572Z,8.88
2022-09-22T06:27:40.843Z,9.17
2022-09-22T06:30:13.609Z,9.48
2022-09-22T06:32:54.346Z,9.72
2022-09-22T06:35:38.789Z,9.96
2022-09-22T06:38:17.277Z,10.31
2022-09-22T06:40:45.935Z,10.63
2022-09-22T06:43:27.734Z,10.96
2022-09-22T06:46:08.640Z,11.29
2022-09-22T06:48:35.915Z,11.42
2022-09-22T06:51:10.827Z,11.66
2022-09-22T06:53:48.602Z,11.91
2022-09-22T06:56:20.399Z,12.10
2022-09-22T06:59:09.544Z,12.30
2022-09-22T07:01:43.983Z,12.64
2022-09-22T07:04:20.752Z,12.92
2022-09-22T07:06:50.467Z,13.15
2022-09-22T07:09:25.664Z,13.45
2022-09-22T07:11:58.654Z,13.44
2022-09-22T07:14:35.590Z,13.48
2022-09-22T07:17:08.161Z,13.42
2022-09-22T07:19:38.376Z,13.51
2022-09-22T07:22:11.075Z,13.59
2022-09-22T07:24:44.413Z,13.72
2022-09-22T07:27:26.309Z,13.96
2022-09-22T07:29:57.721Z,14.34
2022-09-22T07:32:25.006Z,14.42
2022-09-22T07:34:56.327Z,14.49
2022-09-22T07:37:42.342Z,14.48
2022-09-22T07:40:23.334Z,14.59
2022-09-22T07:43:01.595Z,14.57
2022-09-22T07:45:34.114Z,14.31
2022-09-22T07:48:37.435Z,13.80
2022-09-22T07:51:16.507Z,13.62
2022-09-22T07:54:10.181Z,13.86
2022-09-22T07:56:52.970Z,14.00
2022-09-22T07:59:22.593Z,13.98
2022-09-22T08:01:53.177Z,14.00
2022-09-22T08:04:24.282Z,13.93
2022-09-22T08:07:00.145Z,14.07
2022-09-22T08:09:34.267Z,14.12
2022-09-22T08:12:10.689Z,14.07
2022-09-22T08:14:50.042Z,14.38
2022-09-22T08:17:30.931Z,14.64
2022-09-22T08:20:10.611Z,14.60
2022-09-22T08:22:44.264Z,14.74
2022-09-22T08:25:12.861Z,14.80
2022-09-22T08:27:48.099Z,14.81
2022-09-22T08:30:26.804Z,14.80
2022-09-22T08:33:00.843Z,14.62
2022-09-22T08:35:41.503Z,14.75
2022-09-22T08:38:20.099Z,14.95
2022-09-22T08:40:59.435Z,15.14
2022-09-22T08:43:29.924Z,14.92
2022-09-22T08:45:58.100Z,15.07
2022-09-22T08:48:50.063Z,15.03
2022-09-22T08:51:52.367Z,14.83
2022-09-22T08:54:35.458Z,14.94
2022-09-22T08:57:11.617Z,14.79
2022-09-22T09:00:20.060Z,14.89
2022-09-22T09:03:23.500Z,14.86
2022-09-22T09:06:36.724Z,14.91
2022-09-22T09:09:29.693Z,15.06
2022-09-22T09:12:16.367Z,15.19
2022-09-22T09:15:17.188Z,15.37
2022-09-22T09:17:50.460Z,15.51
2022-09-22T09:20:49.377Z,15.39
2022-09-22T09:23:24.756Z,15.62
2022-09-22T09:26:03.670Z,15.52
2022-09-22T09:28:48.002Z,15.63
2022-09-22T09:31:29.081Z,15.61
2022-09-22T09:34:07.863Z,15.60
2022-09-22T09:36:45.634Z,15.95
2022-09-22T09:39:40.355Z,15.90
2022-09-22T09:42:29.394Z,15.99
2022-09-22T09:45:02.573Z,16.20
2022-09-22T09:47:49.350Z,16.32
2022-09-22T09:50:26.742Z,16.45
2022-09-22T09:52:58.411Z,16.61
2022-09-22T09:55:48.137Z,16.56
2022-09-22T09:58:41.760Z,16.39
2022-09-22T10:01:14.491Z,16.32
2022-09-22T10:03:58.187Z,16.49
2022-09-22T10:06:26.594Z,16.61
2022-09-22T10:08:59.526Z,16.41
2022-09-22T10:11:38.752Z,16.57
2022-09-22T10:14:19.378Z,16.80
2022-09-22T10:16:55.377Z,16.93
2022-09-22T10:19:32.261Z,16.68
2022-09-22T10:22:29.463Z,17.05
2022-09-22T10:24:59.371Z,17.11
2022-09-22T10:27:30.162Z,17.10
2022-09-22T10:30:23.260Z,17.62
2022-09-22T10:33:13.622Z,17.78
2022-09-22T10:36:11.784Z,17.77
2022-09-22T10:38:49.225Z,17.69
2022-09-22T10:41:29.213Z,17.43
2022-09-22T10:44:15.462Z,17.36
2022-09-22T10:47:22.487Z,17.55
2022-09-22T10:50:18.740Z,17.44
2022-09-22T10:53:10.343Z,17.70
2022-09-22T10:56:18.778Z,17.90
2022-09-22T10:59:10.109Z,17.89
2022-09-22T11:02:16.264Z,17.55
2022-09-22T11:05:08.124Z,17.62
2022-09-22T11:08:39.046Z,17.95
2022-09-22T11:11:46.550Z,18.13
2022-09-22T11:14:43.240Z,17.93
2022-09-22T11:17:57.324Z,18.08
2022-09-22T11:20:40.318Z,17.62
2022-09-22T11:23:34.855Z,17.67
2022-09-22T11:26:31.590Z,18.05
2022-09-22T11:29:20.552Z,18.26
2022-09-22T11:32:19.878Z,18.29
2022-09-22T11:35:11.884Z,18.29
2022-09-22T11:38:12.822Z,18.14
2022-09-22T11:40:54.677Z,18.04
2022-09-22T11:43:28.482Z,17.57
2022-09-22T11:46:19.937Z,17.82
2022-09-22T11:49:10.064Z,18.38
2022-09-22T11:52:09.631Z,18.25
2022-09-22T11:54:51.643Z,18.80
2022-09-22T11:57:26.370Z,19.02
2022-09-22T12:00:08.999Z,18.82
2022-09-22T12:02:49.308Z,18.91
2022-09-22T12:05:37.200Z,19.04
2022-09-22T12:08:14.210Z,19.00
2022-09-22T12:10:45.717Z,19.11
2022-09-22T12:13:23.185Z,18.96
2022-09-22T12:16:14.083Z,18.94
2022-09-22T12:18:57.650Z,18.73
2022-09-22T12:21:48.049Z,18.64
2022-09-22T12:24:16.131Z,18.33
2022-09-22T12:26:46.346Z,17.73
2022-09-22T12:29:19.422Z,17.69
2022-09-22T12:31:49.163Z,17.62
2022-09-22T12:34:22.577Z,17.25
2022-09-22T12:36:59.913Z,17.34
2022-09-22T12:39:32.429Z,17.06
2022-09-22T12:42:19.029Z,17.12
2022-09-22T12:45:00.800Z,16.59
2022-09-22T12:47:33.630Z,16.39
2022-09-22T12:50:06.123Z,16.73
2022-09-22T12:52:52.967Z,17.12
2022-09-22T12:55:45.199Z,17.69
2022-09-22T12:58:30.550Z,18.03
2022-09-22T13:01:32.739Z,17.76
2022-09-22T13:04:17.337Z,17.62
2022-09-22T13:06:47.467Z,17.71
2022-09-22T13:09:25.656Z,18.20
2022-09-22T13:12:17.648Z,18.46
2022-09-22T13:14:59.679Z,18.41
2022-09-22T13:17:46.811Z,18.72
2022-09-22T13:20:25.562Z,18.96
2022-09-22T13:22:52.727Z,19.10
2022-09-22T13:25:36.541Z,19.06
2022-09-22T13:28:15.823Z,19.13
2022-09-22T13:30:47.136Z,19.33
2022-09-22T13:33:31.421Z,19.10
2022-09-22T13:36:16.687Z,19.38
2022-09-22T13:38:51.164Z,19.36
2022-09-22T13:41:26.532Z,19.48
2022-09-22T13:44:08.035Z,19.66
2022-09-22T13:46:57.059Z,19.55
2022-09-22T13:49:34.521Z,19.71
2022-09-22T13:52:20.592Z,20.00
2022-09-22T13:55:12.182Z,19.87
2022-09-22T13:57:53.529Z,19.83
2022-09-22T14:01:01.493Z,19.63
2022-09-22T14:03:27.359Z,19.28
2022-09-22T14:05:56.784Z,19.53
2022-09-22T14:08:34.006Z,19.63
2022-09-22T14:11:04.318Z,19.63
2022-09-22T14:14:02.337Z,19.64
2022-09-22T14:16:59.120Z,19.39
2022-09-22T14:19:47.595Z,19.56
2022-09-22T14:22:42.131Z,19.69
2022-09-22T14:25:20.780Z,19.82
2022-09-22T14:27:55.634Z,19.27
2022-09-22T14:30:30.945Z,19.81
2022-09-22T14:33:06.981Z,19.46
2022-09-22T14:35:54.952Z,19.20
2022-09-22T14:38:24.898Z,18.89
2022-09-22T14:41:39.376Z,18.62
2022-09-22T14:44:53.001Z,18.52
2022-09-22T14:47:46.431Z,18.70
2022-09-22T14:50:26.452Z,18.53
2022-09-22T14:53:14.329Z,18.28
2022-09-22T14:56:07.282Z,18.05
2022-09-22T14:58:41.667Z,17.90
2022-09-22T15:01:45.177Z,18.05
2022-09-22T15:04:33.039Z,18.20
2022-09-22T15:07:08.045Z,17.96
2022-09-22T15:10:17.847Z,17.63
2022-09-22T15:15:34.733Z,17.16
2022-09-22T15:18:19.652Z,16.87
2022-09-22T15:24:15.437Z,16.38
2022-09-22T15:26:52.446Z,16.14
2022-09-22T15:29:34.035Z,16.06
2022-09-22T15:32:16.013Z,15.84
2022-09-22T15:34:55.141Z,15.78
2022-09-22T15:37:42.344Z,15.53
2022-09-22T15:40:24.742Z,15.30
2022-09-22T15:43:13.485Z,15.07
2022-09-22T15:45:52.823Z,14.82
2022-09-22T15:51:23.570Z,14.23
2022-09-22T15:53:59.258Z,13.82
2022-09-22T15:56:33.241Z,13.75
2022-09-22T15:59:19.191Z,13.64
2022-09-22T16:01:54.010Z,13.59
2022-09-22T16:04:21.803Z,13.46
2022-09-22T16:07:16.500Z,13.29
2022-09-22T16:09:49.428Z,13.78
2022-09-22T16:12:18.676Z,14.58
2022-09-22T16:14:57.232Z,15.56
2022-09-22T16:17:45.782Z,16.23
2022-09-22T16:20:27.734Z,16.41
2022-09-22T16:23:05.229Z,16.54
2022-09-22T16:25:42.269Z,16.32
2022-09-22T16:28:18.294Z,15.66
2022-09-22T16:30:53.570Z,14.98
2022-09-22T16:33:26.534Z,14.35
2022-09-22T16:35:56.572Z,13.90
2022-09-22T16:38:26.813Z,13.49
2022-09-22T16:41:04.735Z,13.17
2022-09-22T16:43:37.242Z,12.80
2022-09-22T16:46:36.135Z,12.61
2022-09-22T16:49:22.589Z,12.36
2022-09-22T16:51:54.439Z,12.21
2022-09-22T16:54:28.625Z,11.94
2022-09-22T16:56:56.334Z,11.80
2022-09-22T16:59:31.955Z,11.66
2022-09-22T17:02:04.854Z,11.52
2022-09-22T17:04:32.501Z,11.34
2022-09-22T17:07:08.789Z,11.17
2022-09-22T17:12:32.144Z,10.92
2022-09-22T17:15:05.449Z,10.84
2022-09-22T17:17:45.377Z,10.73
2022-09-22T17:20:13.903Z,10.61
2022-09-22T17:22:47.163Z,10.55
2022-09-22T17:25:16.690Z,10.44
2022-09-22T17:27:49.859Z,10.30
2022-09-22T17:30:25.381Z,10.13
2022-09-22T17:32:59.217Z,10.08
2022-09-22T17:35:31.650Z,10.08
2022-09-22T17:38:06.308Z,10.01
2022-09-22T17:40:47.085Z,9.87
2022-09-22T17:43:15.351Z,9.78
2022-09-22T17:45:55.835Z,9.73
2022-09-22T17:48:50.271Z,9.68
2022-09-22T17:51:56.100Z,9.56
2022-09-22T17:55:00.826Z,9.52
2022-09-22T17:57:34.216Z,9.33
2022-09-22T18:00:13.725Z,9.27
2022-09-22T18:02:49.981Z,9.16
2022-09-22T18:05:29.948Z,9.17
2022-09-22T18:08:10.600Z,9.09
2022-09-22T18:10:46.174Z,9.11
2022-09-22T18:13:23.203Z,9.01
2022-09-22T18:16:06.140Z,8.97
2022-09-22T18:18:41.269Z,8.79
2022-09-22T18:21:16.147Z,8.72
2022-09-22T18:23:51.792Z,8.67
2022-09-22T18:26:39.784Z,8.55
2022-09-22T18:29:18.232Z,8.52
2022-09-22T18:31:48.705Z,8.45
2022-09-22T18:34:34.941Z,8.42
2022-09-22T18:37:27.504Z,8.36
2022-09-22T18:40:08.118Z,8.27
2022-09-22T18:42:50.271Z,8.18
2022-09-22T18:45:17.474Z,8.12
2022-09-22T18:47:58.703Z,8.05
2022-09-22T18:50:35.838Z,8.07
2022-09-22T18:53:17.928Z,8.04
2022-09-22T18:55:53.425Z,8.02
2022-09-22T18:58:29.275Z,7.97
2022-09-22T19:01:04.473Z,7.91
2022-09-22T19:03:41.503Z,7.86
2022-09-22T19:06:20.757Z,7.83
2022-09-22T19:09:04.085Z,7.74
2022-09-22T19:11:38.566Z,7.66
2022-09-22T19:14:17.925Z,7.65
2022-09-22T19:16:59.608Z,7.54
2022-09-22T19:19:46.051Z,7.51
2022-09-22T19:22:21.817Z,7.42
2022-09-22T19:25:00.482Z,7.41
2022-09-22T19:27:36.689Z,7.35
2022-09-22T19:30:24.069Z,7.31
2022-09-22T19:33:05.911Z,7.26
2022-09-22T19:35:41.497Z,7.19
2022-09-22T19:38:25.873Z,7.12
2022-09-22T19:41:06.194Z,7.09
2022-09-22T19:43:50.175Z,7.04
2022-09-22T19:46:25.302Z,6.98
2022-09-22T19:49:09.955Z,6.96
2022-09-22T19:51:43.411Z,6.90
2022-09-22T19:54:16.130Z,6.91
2022-09-22T19:56:55.053Z,6.85
2022-09-22T19:59:32.780Z,6.83
2022-09-22T20:02:14.207Z,6.73
2022-09-22T20:04:56.051Z,6.74
2022-09-22T20:07:34.749Z,6.67
2022-09-22T20:10:18.678Z,6.64
2022-09-22T20:12:56.264Z,6.51
2022-09-22T20:15:31.629Z,6.47
2022-09-22T20:18:05.593Z,6.47
2022-09-22T20:20:51.181Z,6.39
2022-09-22T20:23:24.342Z,6.35
2022-09-22T20:25:57.387Z,6.34
2022-09-22T20:28:36.180Z,6.30
2022-09-22T20:31:14.352Z,6.26
2022-09-22T20:33:55.647Z,6.12
2022-09-22T20:36:35.987Z,6.08
2022-09-22T20:39:18.102Z,6.10
2022-09-22T20:41:55.836Z,6.12
2022-09-22T20:44:32.295Z,6.07
2022-09-22T20:47:07.262Z,6.04
2022-09-22T20:49:45.915Z,6.00
2022-09-22T20:52:27.959Z,5.96
2022-09-22T20:55:05.103Z,5.95
2022-09-22T20:57:42.828Z,5.92
2022-09-22T21:00:19.098Z,5.98
2022-09-22T21:03:01.667Z,5.96
2022-09-22T21:05:37.048Z,5.98
2022-09-22T21:08:34.194Z,5.96
2022-09-22T21:11:08.259Z,5.91
2022-09-22T21:13:46.423Z,5.92
2022-09-22T21:16:38.470Z,5.96
2022-09-22T21:19:12.843Z,5.92
2022-09-22T21:21:45.427Z,5.83
2022-09-22T21:24:31.111Z,5.78
2022-09-22T21:27:14.588Z,5.76
2022-09-22T21:29:45.096Z,5.71
2022-09-22T21:32:24.632Z,5.74
2022-09-22T21:35:01.590Z,5.71
2022-09-22T21:37:40.350Z,5.65
2022-09-22T21:40:17.713Z,5.55
2022-09-22T21:42:52.147Z,5.49
2022-09-22T21:45:28.356Z,5.39
2022-09-22T21:48:06.742Z,5.39
2022-09-22T21:50:42.016Z,5.36
2022-09-22T21:53:20.476Z,5.35
2022-09-22T21:56:11.680Z,5.30
2022-09-22T21:58:45.178Z,5.30
2022-09-22T22:01:29.335Z,5.20
2022-09-22T22:04:17.862Z,5.17
2022-09-22T22:06:52.176Z,5.18
2022-09-22T22:09:27.693Z,5.15
2022-09-22T22:12:02.988Z,5.09
2022-09-22T22:14:49.282Z,5.08
2022-09-22T22:17:21.737Z,5.08
2022-09-22T22:19:59.221Z,5.02
2022-09-22T22:22:29.371Z,4.99
2022-09-22T22:25:07.168Z,4.92
2022-09-22T22:27:50.622Z,4.95
2022-09-22T22:30:30.950Z,4.89
2022-09-22T22:33:12.548Z,4.87
2022-09-22T22:36:01.943Z,4.79
2022-09-22T22:38:35.967Z,4.76
2022-09-22T22:41:15.342Z,4.75
2022-09-22T22:43:54.625Z,4.74
2022-09-22T22:46:27.543Z,4.74
2022-09-22T22:49:00.397Z,4.73
2022-09-22T22:51:43.235Z,4.75
2022-09-22T22:54:14.647Z,4.72
2022-09-22T22:56:52.493Z,4.77
2022-09-22T22:59:27.889Z,4.80
2022-09-22T23:02:06.484Z,4.83
2022-09-22T23:04:41.960Z,4.84
2022-09-22T23:07:17.669Z,4.86
2022-09-22T23:10:06.554Z,4.92
2022-09-22T23:12:43.976Z,4.96
2022-09-22T23:15:26.355Z,4.90
2022-09-22T23:18:07.487Z,4.86
2022-09-22T23:20:45.057Z,4.85
2022-09-22T23:23:28.703Z,4.90
2022-09-22T23:26:18.058Z,4.84
2022-09-22T23:28:52.678Z,4.84
2022-09-22T23:31:25.979Z,4.92
2022-09-22T23:34:09.119Z,4.90
2022-09-22T23:36:48.246Z,4.86
2022-09-22T23:39:23.231Z,4.81
2022-09-22T23:41:56.402Z,4.76
2022-09-22T23:44:42.322Z,4.72
2022-09-22T23:47:20.837Z,4.63
2022-09-22T23:50:06.555Z,4.61
2022-09-22T23:52:45.831Z,4.62
2022-09-22T23:55:26.855Z,4.61
2022-09-22T23:57:58.180Z,4.57
